Time;durP1;ratioP1;P1;durP2;ratioP2;P2;SDS_P1;SDS_P2;PMS_P1;PMS_P2;Temp;Humidity;BMP_temperature;BMP_pressure;BME280_temperature;BME280_humidity;BME280_pressure;Samples;Min_cycle;Max_cycle;Signal;HPM_P1;HPM_P2
2021/01/10 00:02:21;;;;;;;41.33;25.42;;;;;;;2.11;100.00;97065.94;5020164;28;20033;-69
2021/01/10 00:04:47;;;;;;;41.08;24.75;;;;;;;3.01;100.00;97216.44;5025927;28;20091;-69
2021/01/10 00:07:12;;;;;;;34.22;18.98;;;;;;;2.96;100.00;97227.53;5025263;28;20664;-69
2021/01/10 00:09:38;;;;;;;22.00;12.38;;;;;;;2.97;100.00;97242.84;5025864;28;20542;-69
2021/01/10 00:12:03;;;;;;;27.40;13.95;;;;;;;2.81;100.00;97200.63;5025025;28;20076;-68
2021/01/10 00:14:29;;;;;;;36.45;16.25;;;;;;;2.80;100.00;97204.47;5025603;28;20502;-67
2021/01/10 00:16:54;;;;;;;38.80;17.83;;;;;;;2.37;100.00;97222.63;5025551;28;20026;-67
2021/01/10 00:19:19;;;;;;;36.83;19.38;;;;;;;2.89;100.00;97240.88;5023606;28;20510;-67
2021/01/10 00:21:45;;;;;;;33.60;17.58;;;;;;;2.82;100.00;97218.63;5025061;28;20076;-67
2021/01/10 00:24:10;;;;;;;37.67;17.20;;;;;;;2.68;100.00;97179.66;5023352;28;20037;-67
2021/01/10 00:26:39;;;;;;;42.38;18.33;;;;;;;2.94;100.00;97224.31;5024893;28;20032;-67
2021/01/10 00:29:08;;;;;;;39.95;18.10;;;;;;;3.01;100.00;97216.44;5025331;28;20041;-68
2021/01/10 00:31:36;;;;;;;38.65;17.00;;;;;;;3.16;100.00;97250.78;5024745;28;20397;-68
2021/01/10 00:34:03;;;;;;;35.53;17.15;;;;;;;3.19;100.00;97237.28;5023799;28;20107;-67
2021/01/10 00:36:36;;;;;;;39.92;21.00;;;;;;;3.15;100.00;97243.69;5024741;28;20072;-67
2021/01/10 00:39:04;;;;;;;41.22;20.65;;;;;;;2.64;100.00;97173.22;5040179;28;20099;-67
2021/01/10 00:41:37;;;;;;;30.25;15.98;;;;;;;3.15;100.00;97228.06;5024572;28;20043;-68
2021/01/10 00:44:04;;;;;;;37.22;20.55;;;;;;;2.91;100.00;97200.31;5023482;28;20035;-68
2021/01/10 00:46:33;;;;;;;45.05;21.58;;;;;;;2.85;100.00;97190.66;5024384;28;20440;-67
2021/01/10 00:49:02;;;;;;;41.72;21.48;;;;;;;3.13;100.00;97221.31;5025178;28;20183;-66
2021/01/10 00:51:27;;;;;;;34.67;18.13;;;;;;;3.09;100.00;97226.59;5024405;28;20044;-67
2021/01/10 00:53:53;;;;;;;33.35;17.95;;;;;;;3.10;100.00;97228.22;5025302;28;20490;-67
2021/01/10 00:56:18;;;;;;;48.67;24.45;;;;;;;3.14;100.00;97231.94;5039655;28;20572;-66
2021/01/10 00:58:44;;;;;;;47.42;24.98;;;;;;;2.38;100.00;97114.91;5024642;28;20043;-64
2021/01/10 01:01:10;;;;;;;58.30;28.35;;;;;;;3.09;100.00;97226.59;5024132;28;20041;-66
2021/01/10 01:03:35;;;;;;;63.58;29.73;;;;;;;3.04;100.00;97226.75;5024810;28;20420;-65
2021/01/10 01:06:01;;;;;;;56.17;26.60;;;;;;;3.03;100.00;97208.72;5022747;28;20040;-65
2021/01/10 01:08:26;;;;;;;43.40;22.13;;;;;;;3.22;100.00;97228.41;5006755;28;20967;-65
2021/01/10 01:10:51;;;;;;;35.90;18.67;;;;;;;2.81;100.00;97244.38;5024337;28;20049;-65
2021/01/10 01:13:18;;;;;;;42.92;22.13;;;;;;;2.98;100.00;97255.38;5006844;28;20041;-66
2021/01/10 01:15:44;;;;;;;54.63;25.38;;;;;;;3.00;100.00;97264.88;5024148;28;20072;-66
2021/01/10 01:18:09;;;;;;;50.70;23.20;;;;;;;3.07;100.00;97242.53;5024611;28;20130;-67
2021/01/10 01:20:35;;;;;;;45.95;22.70;;;;;;;3.10;100.00;97225.47;5024272;28;20041;-65
2021/01/10 01:23:03;;;;;;;46.60;22.55;;;;;;;2.60;100.00;97150.34;5024502;28;20038;-64
2021/01/10 01:25:29;;;;;;;48.53;24.77;;;;;;;2.89;100.00;97246.34;5024129;28;20033;-65
2021/01/10 01:27:55;;;;;;;39.45;21.50;;;;;;;3.07;100.00;97242.53;5024411;28;20037;-65
2021/01/10 01:30:21;;;;;;;50.53;26.15;;;;;;;2.76;100.00;97219.91;5024112;28;20033;-65
2021/01/10 01:32:46;;;;;;;45.75;22.67;;;;;;;3.24;100.00;97253.53;5024310;28;20581;-66
2021/01/10 01:35:12;;;;;;;42.83;21.75;;;;;;;3.30;100.00;97245.97;5024097;28;20037;-66
2021/01/10 01:37:38;;;;;;;42.60;21.88;;;;;;;2.87;100.00;97188.41;5024230;28;20037;-67
2021/01/10 01:40:09;;;;;;;31.73;16.67;;;;;;;3.29;100.00;97234.22;5024229;28;20045;-66
2021/01/10 01:42:34;;;;;;;35.40;18.80;;;;;;;3.26;100.00;97240.34;5006420;28;20034;-66
2021/01/10 01:45:01;;;;;;;40.25;22.45;;;;;;;2.94;100.00;97205.19;5024308;28;20030;-66
2021/01/10 01:47:27;;;;;;;39.28;20.92;;;;;;;2.22;100.00;97100.84;5023729;28;20511;-66
2021/01/10 01:49:53;;;;;;;43.72;21.73;;;;;;;3.21;100.00;97256.91;5024374;28;20096;-66
2021/01/10 01:52:18;;;;;;;37.47;21.20;;;;;;;2.73;100.00;97160.38;5005704;28;20069;-66
2021/01/10 01:54:44;;;;;;;32.22;15.77;;;;;;;3.24;100.00;97259.00;5004799;28;20524;-66
2021/01/10 01:57:10;;;;;;;20.17;11.07;;;;;;;3.21;100.00;97254.16;5008220;28;20109;-67
2021/01/10 01:59:36;;;;;;;24.52;12.68;;;;;;;2.93;100.00;97198.06;5006869;28;20069;-66
2021/01/10 02:02:05;;;;;;;26.60;12.48;;;;;;;3.33;100.00;97262.59;5018722;28;20030;-66
2021/01/10 02:04:39;;;;;;;21.92;12.32;;;;;;;3.30;100.00;97243.25;5028063;28;20496;-66
2021/01/10 02:07:24;;;;;;;22.02;9.60;;;;;;;2.73;100.00;97154.91;5025997;28;20140;-66
2021/01/10 02:10:02;;;;;;;23.08;10.60;;;;;;;2.50;100.00;97145.16;5028210;28;20048;-67
2021/01/10 02:12:30;;;;;;;26.00;13.45;;;;;;;2.75;100.00;97199.16;5027126;28;20047;-66
2021/01/10 02:15:06;;;;;;;31.38;16.30;;;;;;;3.32;100.00;97263.69;5026225;28;20606;-67
2021/01/10 02:17:33;;;;;;;30.80;16.40;;;;;;;3.30;100.00;97252.28;5027502;28;20030;-68
2021/01/10 02:20:07;;;;;;;48.28;23.42;;;;;;;3.35;100.00;97254.03;5027639;28;20045;-68
2021/01/10 02:22:38;;;;;;;62.90;30.80;;;;;;;3.45;100.00;97251.81;5027662;28;20038;-69
2021/01/10 02:25:04;;;;;;;46.95;25.17;;;;;;;3.44;100.00;97242.00;5027591;28;20034;-68
2021/01/10 02:27:30;;;;;;;56.17;27.25;;;;;;;3.33;100.00;97248.91;5027783;28;20051;-68
2021/01/10 02:29:56;;;;;;;49.53;27.00;;;;;;;3.29;100.00;97272.53;5027017;28;20044;-69
2021/01/10 02:32:25;;;;;;;55.03;27.65;;;;;;;2.67;100.00;97146.03;5027039;28;20111;-69
2021/01/10 02:34:53;;;;;;;64.18;28.00;;;;;;;3.39;100.00;97250.34;5027580;28;20029;-69
2021/01/10 02:37:38;;;;;;;56.60;26.77;;;;;;;3.46;100.00;97256.19;5026733;28;20040;-68
2021/01/10 02:40:18;;;;;;;61.40;27.50;;;;;;;3.52;100.00;97249.41;5027164;28;20051;-68
2021/01/10 02:43:04;;;;;;;59.83;25.75;;;;;;;3.17;100.00;97192.16;5027374;28;20048;-68
2021/01/10 02:45:31;;;;;;;49.38;22.05;;;;;;;3.24;100.00;97209.72;5026643;28;20037;-66
2021/01/10 02:47:57;;;;;;;49.05;21.17;;;;;;;3.05;100.00;97185.38;5027347;28;20407;-68
2021/01/10 02:50:22;;;;;;;63.80;27.20;;;;;;;3.39;100.00;97212.03;5026568;28;20132;-69
2021/01/10 02:52:48;;;;;;;50.10;23.02;;;;;;;3.49;100.00;97239.09;5027140;28;20026;-66
2021/01/10 02:55:15;;;;;;;55.08;29.50;;;;;;;3.50;100.00;97251.66;5024833;28;20041;-68
2021/01/10 02:57:50;;;;;;;52.88;29.25;;;;;;;0.48;100.00;96782.53;5041986;28;20481;-68
2021/01/10 03:00:17;;;;;;;41.67;20.85;;;;;;;3.23;100.00;97218.25;5026640;28;20587;-68
2021/01/10 03:02:45;;;;;;;50.10;25.75;;;;;;;2.99;100.00;97158.50;5026688;28;20048;-68
2021/01/10 03:05:12;;;;;;;48.80;22.50;;;;;;;3.46;100.00;97239.75;5026738;28;20037;-68
2021/01/10 03:07:39;;;;;;;40.88;19.65;;;;;;;3.56;100.00;97274.19;5026633;28;20097;-66
2021/01/10 03:10:05;;;;;;;37.60;17.92;;;;;;;3.26;100.00;97223.91;5026439;28;20554;-67
2021/01/10 03:12:31;;;;;;;42.13;19.33;;;;;;;3.56;100.00;97261.31;5026668;28;20034;-67
2021/01/10 03:14:59;;;;;;;45.22;20.23;;;;;;;3.58;100.00;97248.13;5009098;28;20037;-68
2021/01/10 03:17:46;;;;;;;34.10;18.08;;;;;;;3.44;100.00;97250.22;5026282;28;20125;-67
2021/01/10 03:20:17;;;;;;;26.08;12.82;;;;;;;3.56;100.00;97288.72;5008200;28;20041;-67
2021/01/10 03:22:45;;;;;;;24.20;12.13;;;;;;;3.42;100.00;97288.03;5026242;28;20512;-68
2021/01/10 03:25:12;;;;;;;40.38;21.77;;;;;;;3.53;100.00;97261.97;5007820;28;20409;-68
2021/01/10 03:27:38;;;;;;;46.03;23.42;;;;;;;3.51;100.00;97272.44;5026261;28;20112;-68
2021/01/10 03:30:13;;;;;;;57.08;30.15;;;;;;;3.07;100.00;97209.69;5026409;28;20148;-68
2021/01/10 03:32:38;;;;;;;97.97;53.03;;;;;;;3.45;100.00;97281.91;5008520;28;20492;-68
2021/01/10 03:35:06;;;;;;;57.75;23.90;;;;;;;3.52;100.00;97292.41;5008274;28;20050;-67
2021/01/10 03:37:31;;;;;;;57.30;23.63;;;;;;;3.51;100.00;97293.56;5026203;28;20033;-67
2021/01/10 03:39:56;;;;;;;67.82;25.42;;;;;;;2.97;100.00;97237.38;5008220;28;20041;-68
2021/01/10 03:42:22;;;;;;;59.17;22.63;;;;;;;3.19;100.00;97275.59;5025532;28;20029;-70
2021/01/10 03:44:48;;;;;;;49.42;19.50;;;;;;;2.97;100.00;97205.31;5025958;28;20060;-70
2021/01/10 03:47:13;;;;;;;69.32;24.25;;;;;;;3.42;100.00;97236.03;5007459;28;20034;-69
2021/01/10 03:49:39;;;;;;;53.22;18.33;;;;;;;3.41;100.00;97252.78;5025700;28;20060;-69
2021/01/10 03:52:05;;;;;;;54.33;22.23;;;;;;;2.84;100.00;97210.94;5025446;28;20029;-70
2021/01/10 03:54:31;;;;;;;51.40;20.75;;;;;;;3.06;100.00;97246.41;5025670;28;20056;-71
2021/01/10 03:56:56;;;;;;;59.80;22.02;;;;;;;3.43;100.00;97292.38;5007399;28;20029;-72
2021/01/10 03:59:22;;;;;;;58.83;22.77;;;;;;;3.44;100.00;97291.28;5007390;28;20041;-68
2021/01/10 04:01:47;;;;;;;65.53;24.33;;;;;;;3.50;100.00;97275.50;5012532;28;20037;-67
2021/01/10 04:04:13;;;;;;;52.10;20.90;;;;;;;3.51;100.00;97286.13;5025659;28;20493;-70
2021/01/10 04:06:38;;;;;;;55.80;21.15;;;;;;;3.44;100.00;97296.75;5025153;28;20025;-68
2021/01/10 04:09:04;;;;;;;39.60;19.23;;;;;;;3.51;100.00;97285.34;5025843;28;20037;-67
2021/01/10 04:11:29;;;;;;;37.58;17.80;;;;;;;3.32;100.00;97250.00;5023752;28;20087;-67
2021/01/10 04:13:55;;;;;;;28.48;15.13;;;;;;;3.56;100.00;97359.91;5025526;28;20132;-68
2021/01/10 04:16:20;;;;;;;24.25;13.18;;;;;;;3.20;100.00;97251.75;5025369;28;20033;-68
2021/01/10 04:18:46;;;;;;;35.50;16.73;;;;;;;3.48;100.00;97302.41;5025098;28;20119;-67
2021/01/10 04:21:11;;;;;;;37.70;16.48;;;;;;;3.30;100.00;97263.22;5025372;28;20447;-66
2021/01/10 04:23:37;;;;;;;32.33;15.73;;;;;;;3.62;100.00;97301.13;5025435;28;20032;-66
2021/01/10 04:26:03;;;;;;;30.42;15.40;;;;;;;3.24;100.00;97248.03;5023426;28;20496;-66
2021/01/10 04:28:28;;;;;;;30.95;17.58;;;;;;;3.58;100.00;97387.78;5025819;28;20029;-67
2021/01/10 04:30:54;;;;;;;60.65;32.92;;;;;;;3.62;100.00;97303.06;5025153;28;20134;-65
2021/01/10 04:33:19;;;;;;;51.13;27.52;;;;;;;1.07;100.00;96889.19;5023589;28;20040;-67
2021/01/10 04:35:45;;;;;;;50.70;26.52;;;;;;;3.43;100.00;97262.25;5024859;28;20073;-67
2021/01/10 04:38:10;;;;;;;57.35;29.80;;;;;;;3.45;100.00;97287.41;5025070;28;20029;-67
2021/01/10 04:40:35;;;;;;;58.45;30.20;;;;;;;3.70;100.00;97288.59;5023249;28;20512;-68
2021/01/10 04:43:01;;;;;;;70.35;35.78;;;;;;;3.65;100.00;97292.25;5023733;28;20025;-68
2021/01/10 04:45:27;;;;;;;71.97;36.05;;;;;;;3.61;100.00;97285.81;5022961;28;20053;-64
2021/01/10 04:47:54;;;;;;;42.88;22.92;;;;;;;3.64;100.00;97284.38;5024914;28;20416;-67
2021/01/10 04:50:22;;;;;;;44.88;23.48;;;;;;;3.64;100.00;97285.19;5022445;28;20056;-66
2021/01/10 04:52:52;;;;;;;32.85;17.27;;;;;;;0.97;100.00;96867.63;5024537;28;20025;-65
2021/01/10 04:55:19;;;;;;;23.02;12.45;;;;;;;2.80;100.00;97174.38;5024271;28;20037;-67
2021/01/10 04:57:45;;;;;;;20.95;11.85;;;;;;;3.64;100.00;97290.66;5023326;28;20040;-66
2021/01/10 05:00:11;;;;;;;24.58;13.50;;;;;;;3.39;100.00;97253.09;5024412;28;20037;-65
2021/01/10 05:02:46;;;;;;;20.13;10.63;;;;;;;3.63;100.00;97299.19;5011622;28;20033;-68
2021/01/10 05:05:13;;;;;;;32.90;15.32;;;;;;;3.56;100.00;97294.19;5006469;28;20098;-68
2021/01/10 05:07:41;;;;;;;32.05;16.65;;;;;;;3.37;100.00;97288.19;5024715;28;20079;-67
2021/01/10 05:10:07;;;;;;;34.83;18.20;;;;;;;3.46;100.00;97310.94;5024481;28;20041;-67
2021/01/10 05:12:32;;;;;;;37.33;19.23;;;;;;;3.37;100.00;97288.19;5007088;28;20029;-68
2021/01/10 05:14:58;;;;;;;40.60;20.60;;;;;;;3.53;100.00;97330.44;5025082;28;20041;-68
2021/01/10 05:17:24;;;;;;;48.13;23.95;;;;;;;3.48;100.00;97324.31;5006760;28;20037;-68
2021/01/10 05:19:49;;;;;;;43.58;22.60;;;;;;;3.25;100.00;97288.00;5006733;28;20496;-67
2021/01/10 05:22:16;;;;;;;50.75;26.42;;;;;;;2.98;100.00;97233.50;5023958;28;20488;-67
2021/01/10 05:24:46;;;;;;;36.72;19.08;;;;;;;3.54;100.00;97334.78;5024299;28;20043;-67
2021/01/10 05:27:12;;;;;;;34.88;18.40;;;;;;;3.56;100.00;97327.06;5024186;28;20104;-67
2021/01/10 05:29:37;;;;;;;33.92;18.77;;;;;;;3.61;100.00;97326.91;5024419;28;20121;-62
2021/01/10 05:32:04;;;;;;;42.25;21.73;;;;;;;3.57;100.00;97320.47;5028065;28;20029;-64
2021/01/10 05:34:29;;;;;;;43.15;23.00;;;;;;;3.62;100.00;97325.00;5028781;28;20045;-62
2021/01/10 05:36:56;;;;;;;50.97;26.50;;;;;;;2.82;100.00;97183.06;5028288;28;20021;-62
2021/01/10 05:39:27;;;;;;;41.60;21.95;;;;;;;3.73;100.00;97338.03;5028192;28;20037;-62
2021/01/10 05:42:01;;;;;;;48.47;22.73;;;;;;;3.67;100.00;97328.38;5027897;28;20500;-62
2021/01/10 05:44:29;;;;;;;54.22;27.83;;;;;;;3.65;100.00;97329.81;5028188;28;20073;-62
2021/01/10 05:47:02;;;;;;;73.85;38.15;;;;;;;3.64;100.00;97323.53;5027895;28;20029;-62
2021/01/10 05:49:28;;;;;;;63.85;30.58;;;;;;;3.53;100.00;97311.25;5027800;28;20423;-63
2021/01/10 05:51:55;;;;;;;75.90;36.55;;;;;;;3.62;100.00;97334.00;5027801;28;20029;-62
2021/01/10 05:54:40;;;;;;;57.35;20.88;;;;;;;-0.29;100.00;96708.56;5027966;28;20232;-63
2021/01/10 05:57:07;;;;;;;23.00;9.93;;;;;;;3.55;100.00;97330.94;5009478;28;20056;-61
2021/01/10 05:59:49;;;;;;;20.52;10.18;;;;;;;3.57;100.00;97327.88;5009702;28;20052;-62
2021/01/10 06:02:31;;;;;;;15.68;8.00;;;;;;;3.51;100.00;97335.41;5027379;28;20033;-62
2021/01/10 06:05:10;;;;;;;14.27;7.43;;;;;;;3.51;100.00;97329.94;5027906;28;20052;-62
2021/01/10 06:07:36;;;;;;;15.35;7.43;;;;;;;2.83;100.00;97302.28;5043340;28;20033;-61
2021/01/10 06:10:02;;;;;;;16.65;8.55;;;;;;;3.51;100.00;97338.16;5043103;28;20505;-62
2021/01/10 06:12:27;;;;;;;20.65;9.68;;;;;;;3.32;100.00;97293.00;5027733;28;20026;-61
2021/01/10 06:15:10;;;;;;;21.17;10.57;;;;;;;2.83;100.00;97220.22;5026234;28;20202;-63
2021/01/10 06:17:47;;;;;;;32.17;16.17;;;;;;;3.73;100.00;97316.13;5026323;28;20416;-62
2021/01/10 06:20:29;;;;;;;77.72;36.58;;;;;;;3.73;100.00;97324.34;5025665;28;20044;-62
2021/01/10 06:22:56;;;;;;;110.20;52.70;;;;;;;3.67;100.00;97317.41;5027709;28;20311;-62
2021/01/10 06:25:26;;;;;;;153.68;74.57;;;;;;;3.37;100.00;97274.50;5025122;28;20103;-62
2021/01/10 06:28:03;;;;;;;117.55;57.67;;;;;;;3.76;100.00;97342.88;5027739;28;20037;-62
2021/01/10 06:30:33;;;;;;;97.03;46.10;;;;;;;3.76;100.00;97350.31;5027009;28;20047;-62
2021/01/10 06:33:05;;;;;;;94.82;46.13;;;;;;;3.74;100.00;97344.34;5025848;28;20129;-62
2021/01/10 06:35:37;;;;;;;49.97;28.80;;;;;;;3.49;100.00;97332.19;5027064;28;20056;-62
2021/01/10 06:38:04;;;;;;;43.65;24.75;;;;;;;3.52;100.00;97325.28;5026996;28;20424;-60
2021/01/10 06:40:38;;;;;;;38.58;22.88;;;;;;;3.53;100.00;97324.94;5026800;28;20041;-61
2021/01/10 06:43:05;;;;;;;54.88;29.05;;;;;;;3.73;100.00;97353.69;5027457;28;20049;-61
2021/01/10 06:45:36;;;;;;;58.78;28.67;;;;;;;2.90;100.00;97228.81;5026778;28;20064;-62
2021/01/10 06:48:05;;;;;;;79.43;35.97;;;;;;;3.76;100.00;97364.78;5042330;28;20076;-61
2021/01/10 06:50:32;;;;;;;119.30;46.55;;;;;;;2.79;100.00;97236.50;5024939;28;20057;-63
2021/01/10 06:53:05;;;;;;;100.90;47.80;;;;;;;3.57;100.00;97345.13;5026495;28;20037;-62
2021/01/10 06:55:31;;;;;;;92.80;44.17;;;;;;;3.84;100.00;97383.19;5026557;28;20033;-63
2021/01/10 06:57:57;;;;;;;87.93;45.13;;;;;;;3.80;100.00;97382.22;5026870;28;20220;-64
2021/01/10 07:00:23;;;;;;;106.13;54.72;;;;;;;3.33;100.00;97305.56;5023944;28;20045;-62
2021/01/10 07:03:09;;;;;;;119.15;56.97;;;;;;;3.84;100.00;97361.28;5026356;28;20037;-62
2021/01/10 07:05:58;;;;;;;101.45;51.10;;;;;;;3.91;100.00;97356.13;5008344;28;20102;-62
2021/01/10 07:08:43;;;;;;;68.65;37.85;;;;;;;3.53;100.00;97324.94;5020943;28;20128;-66
2021/01/10 07:11:20;;;;;;;92.50;47.22;;;;;;;3.87;100.00;97381.75;5026922;28;20040;-66
2021/01/10 07:13:47;;;;;;;87.18;47.50;;;;;;;3.34;100.00;97312.66;5007842;28;20492;-65
2021/01/10 07:16:20;;;;;;;78.95;41.60;;;;;;;3.97;100.00;97382.25;5026498;28;20029;-66
2021/01/10 07:18:53;;;;;;;85.05;44.67;;;;;;;3.95;100.00;97398.19;5026599;28;20040;-66
2021/01/10 07:21:31;;;;;;;89.65;44.22;;;;;;;4.08;100.00;97419.19;5008011;28;20060;-68
2021/01/10 07:24:12;;;;;;;101.15;43.58;;;;;;;4.11;100.00;97421.28;5008522;28;20116;-67
2021/01/10 07:26:49;;;;;;;111.63;48.15;;;;;;;3.42;100.00;97351.00;5026043;28;20526;-67
2021/01/10 07:29:35;;;;;;;99.20;45.65;;;;;;;3.39;100.00;97288.69;5026496;28;20048;-66
2021/01/10 07:32:02;;;;;;;84.70;36.58;;;;;;;3.60;100.00;97308.88;5026090;28;20311;-65
2021/01/10 07:34:29;;;;;;;75.65;34.20;;;;;;;4.08;100.00;97415.63;5008003;28;20049;-67
2021/01/10 07:37:00;;;;;;;52.38;24.65;;;;;;;3.90;100.00;97408.53;5025451;28;20093;-67
2021/01/10 07:39:29;;;;;;;52.63;26.95;;;;;;;3.60;100.00;97321.75;5025998;28;20056;-65
2021/01/10 07:42:31;;;;;;;53.90;26.98;;;;;;;4.16;100.00;97423.91;5025564;28;20033;-65
2021/01/10 07:44:59;;;;;;;55.85;29.83;;;;;;;4.23;99.93;97418.75;5002889;28;20104;-68
2021/01/10 07:47:33;;;;;;;59.53;29.35;;;;;;;4.26;99.37;97415.38;5005678;28;20038;-68
2021/01/10 07:50:01;;;;;;;63.95;32.15;;;;;;;4.34;99.38;97421.97;4988324;28;20128;-65
2021/01/10 07:52:41;;;;;;;85.40;38.45;;;;;;;4.32;100.00;97440.69;5005096;28;20045;-68
2021/01/10 07:55:17;;;;;;;74.80;34.38;;;;;;;4.32;100.00;97449.72;5005746;28;20038;-68
2021/01/10 07:57:44;;;;;;;72.53;34.95;;;;;;;4.35;99.73;97449.09;5019206;28;20037;-67
2021/01/10 08:00:13;;;;;;;78.18;38.10;;;;;;;4.33;100.00;97440.38;5045042;28;20036;-65
2021/01/10 08:03:04;;;;;;;75.25;39.03;;;;;;;4.21;100.00;97409.22;5032896;28;20033;-67
2021/01/10 08:05:32;;;;;;;70.70;34.85;;;;;;;4.51;100.00;97441.19;5025525;28;20499;-65
2021/01/10 08:08:13;;;;;;;60.22;37.17;;;;;;;4.56;100.00;97444.59;5007748;28;20026;-68
2021/01/10 08:10:55;;;;;;;62.40;36.70;;;;;;;4.49;99.31;97433.28;5025186;28;20485;-67
2021/01/10 08:13:40;;;;;;;74.68;44.33;;;;;;;4.69;98.77;97454.59;5007411;28;20029;-67
2021/01/10 08:16:12;;;;;;;107.78;59.55;;;;;;;4.74;98.98;97455.56;5007121;28;20029;-67
2021/01/10 08:18:43;;;;;;;95.07;55.70;;;;;;;4.77;100.00;97466.72;5025403;28;20025;-65
2021/01/10 08:21:11;;;;;;;107.88;65.35;;;;;;;4.85;100.00;97457.69;5024878;28;20492;-65
2021/01/10 08:23:37;;;;;;;115.72;68.28;;;;;;;4.82;99.89;97421.84;5025843;28;20037;-68
2021/01/10 08:26:06;;;;;;;138.25;76.38;;;;;;;5.05;99.09;97439.72;5025039;28;20038;-65
2021/01/10 08:28:46;;;;;;;152.93;87.30;;;;;;;5.06;98.48;97422.16;5025506;28;20514;-67
2021/01/10 08:31:14;;;;;;;135.88;77.28;;;;;;;5.06;98.42;97436.66;5024706;28;20106;-67
2021/01/10 08:33:40;;;;;;;129.75;68.53;;;;;;;5.08;97.60;97433.59;5025196;28;20033;-67
2021/01/10 08:36:20;;;;;;;92.40;50.95;;;;;;;5.14;98.30;97426.81;5024986;28;20470;-64
2021/01/10 08:38:55;;;;;;;88.55;48.28;;;;;;;5.26;98.65;97427.75;5025230;28;20037;-68
2021/01/10 08:41:35;;;;;;;100.35;54.28;;;;;;;5.30;97.94;97425.94;5006973;28;20033;-68
2021/01/10 08:44:03;;;;;;;86.10;50.30;;;;;;;5.16;97.97;97408.88;5025164;28;20500;-66
2021/01/10 08:46:34;;;;;;;175.75;88.75;;;;;;;5.24;97.81;97437.44;5006493;28;20033;-67
2021/01/10 08:49:00;;;;;;;122.20;60.90;;;;;;;5.19;98.14;97443.09;5024864;28;20057;-67
2021/01/10 08:51:33;;;;;;;152.82;74.38;;;;;;;5.20;98.49;97433.75;5024206;28;20385;-66
2021/01/10 08:54:01;;;;;;;168.15;73.80;;;;;;;5.17;99.06;97431.66;5007098;28;20665;-66
2021/01/10 08:56:29;;;;;;;138.75;65.80;;;;;;;5.12;98.82;97442.78;5024129;28;20041;-66
2021/01/10 08:58:56;;;;;;;82.63;40.80;;;;;;;4.54;99.48;97320.66;5024655;28;20383;-66
2021/01/10 09:01:23;;;;;;;210.10;104.43;;;;;;;4.79;99.92;97398.56;5006005;28;20042;-66
2021/01/10 09:03:56;;;;;;;119.15;60.33;;;;;;;4.73;99.90;97382.63;5023030;28;20524;-67
2021/01/10 09:06:31;;;;;;;165.52;80.68;;;;;;;5.13;98.23;97416.94;5022698;28;20067;-66
2021/01/10 09:09:06;;;;;;;137.40;81.43;;;;;;;5.09;98.92;97407.75;5023374;28;20037;-67
2021/01/10 09:11:36;;;;;;;80.72;46.38;;;;;;;5.09;98.08;97403.06;5024103;28;20112;-68
2021/01/10 09:14:03;;;;;;;66.63;39.05;;;;;;;4.01;98.43;97251.69;5024600;28;20037;-67
2021/01/10 09:16:34;;;;;;;61.25;39.05;;;;;;;5.10;98.46;97458.78;5039036;28;20032;-67
2021/01/10 09:19:01;;;;;;;63.08;33.78;;;;;;;4.63;98.92;97361.81;5024330;28;20610;-67
2021/01/10 09:21:27;;;;;;;128.32;70.55;;;;;;;4.94;98.54;97389.03;5022521;28;20037;-65
2021/01/10 09:23:55;;;;;;;80.00;36.08;;;;;;;5.03;98.82;97404.38;5022760;28;20034;-64
2021/01/10 09:26:31;;;;;;;71.43;31.17;;;;;;;5.44;96.73;97398.28;5023808;28;20524;-66
2021/01/10 09:28:58;;;;;;;59.28;29.67;;;;;;;5.53;97.33;97377.09;5024206;28;20033;-67
2021/01/10 09:31:37;;;;;;;79.80;40.83;;;;;;;2.59;96.86;96922.63;5021990;28;20041;-66
2021/01/10 09:34:04;;;;;;;88.72;46.38;;;;;;;5.55;97.42;97394.84;5024316;28;20476;-66
2021/01/10 09:36:31;;;;;;;69.47;36.15;;;;;;;5.60;96.55;97380.94;5024057;28;20154;-66
2021/01/10 09:38:56;;;;;;;64.32;35.45;;;;;;;5.13;96.37;97320.84;5024611;28;20022;-67
2021/01/10 09:41:23;;;;;;;58.47;33.13;;;;;;;5.64;97.09;97397.56;5024006;28;20040;-67
2021/01/10 09:43:51;;;;;;;56.97;35.03;;;;;;;5.67;97.09;97388.66;5022054;28;20048;-67
2021/01/10 09:46:33;;;;;;;60.05;33.78;;;;;;;5.55;97.44;97394.03;5023331;28;20073;-68
2021/01/10 09:49:16;;;;;;;73.03;37.83;;;;;;;5.57;98.00;97403.56;5022149;28;20056;-67
2021/01/10 09:51:43;;;;;;;47.63;26.27;;;;;;;5.59;97.24;97406.00;5022062;28;20052;-67
2021/01/10 09:54:28;;;;;;;69.50;36.30;;;;;;;5.00;97.17;97332.84;5024562;28;20461;-66
2021/01/10 09:56:58;;;;;;;70.40;36.05;;;;;;;5.50;98.02;97413.47;5023834;28;20080;-67
2021/01/10 09:59:32;;;;;;;74.32;38.40;;;;;;;5.31;97.37;97410.28;5039023;28;20416;-68
2021/01/10 10:01:59;;;;;;;88.80;42.58;;;;;;;5.28;98.50;97414.47;5023470;28;20099;-68
2021/01/10 10:04:26;;;;;;;99.13;46.92;;;;;;;5.31;98.65;97397.34;5023990;28;20484;-64
2021/01/10 10:06:52;;;;;;;81.45;40.00;;;;;;;5.03;98.43;97365.94;5023601;28;20037;-63
2021/01/10 10:09:17;;;;;;;73.38;36.72;;;;;;;4.96;100.00;97387.59;5006114;28;20550;-62
2021/01/10 10:11:43;;;;;;;63.03;37.58;;;;;;;5.00;100.00;97360.28;5023594;28;20033;-63
2021/01/10 10:14:08;;;;;;;51.53;31.55;;;;;;;4.45;100.00;97270.53;5024025;28;20042;-63
2021/01/10 10:16:34;;;;;;;36.25;20.05;;;;;;;5.07;100.00;97374.31;5006896;28;20037;-63
2021/01/10 10:18:59;;;;;;;30.23;18.95;;;;;;;5.01;100.00;97370.16;5009493;28;20632;-63
2021/01/10 10:21:25;;;;;;;29.67;16.35;;;;;;;4.88;100.00;97357.41;5027750;28;20476;-64
2021/01/10 10:23:50;;;;;;;30.90;18.20;;;;;;;4.55;100.00;97299.53;5009458;28;20507;-64
2021/01/10 10:26:16;;;;;;;27.52;15.02;;;;;;;4.19;100.00;97236.84;5026944;28;20493;-62
2021/01/10 10:28:41;;;;;;;38.90;18.77;;;;;;;5.17;100.00;97354.78;5027557;28;20559;-63
2021/01/10 10:31:07;;;;;;;24.10;13.23;;;;;;;5.10;100.00;97341.53;5008963;28;20511;-63
2021/01/10 10:33:33;;;;;;;32.50;15.10;;;;;;;4.87;100.00;97300.94;5009519;28;20036;-64
2021/01/10 10:35:59;;;;;;;33.25;20.52;;;;;;;5.14;100.00;97317.00;5026979;28;20029;-63
2021/01/10 10:38:24;;;;;;;28.60;16.63;;;;;;;5.19;100.00;97344.25;5027131;28;20045;-64
2021/01/10 10:40:49;;;;;;;37.22;21.35;;;;;;;4.87;100.00;97315.44;5008861;28;20060;-64
2021/01/10 10:43:15;;;;;;;40.03;25.88;;;;;;;5.03;100.00;97333.00;5027113;28;20035;-63
2021/01/10 10:45:40;;;;;;;44.67;24.88;;;;;;;5.04;100.00;97339.31;5026984;28;20060;-63
2021/01/10 10:48:06;;;;;;;43.13;27.67;;;;;;;4.66;100.00;97306.31;5027342;28;20036;-64
2021/01/10 10:50:33;;;;;;;30.45;19.27;;;;;;;4.95;100.00;97327.53;5026927;28;20114;-65
2021/01/10 10:52:58;;;;;;;34.80;20.40;;;;;;;4.40;100.00;97276.16;5027194;28;20124;-63
2021/01/10 10:55:26;;;;;;;32.90;19.23;;;;;;;4.51;100.00;97258.25;5026769;28;20655;-64
2021/01/10 10:57:52;;;;;;;27.02;14.70;;;;;;;4.88;100.00;97324.47;5009138;28;20041;-66
2021/01/10 11:00:17;;;;;;;28.55;18.10;;;;;;;4.61;100.00;97285.34;5008432;28;20508;-63
2021/01/10 11:02:46;;;;;;;32.70;17.73;;;;;;;4.90;100.00;97316.72;5016169;28;20642;-63
2021/01/10 11:05:11;;;;;;;94.07;37.05;;;;;;;3.81;100.00;97131.78;5024866;28;20037;-62
2021/01/10 11:07:37;;;;;;;95.38;36.75;;;;;;;4.84;100.00;97329.03;5025074;28;20483;-63
2021/01/10 11:10:04;;;;;;;74.22;29.88;;;;;;;4.68;100.00;97284.03;5025326;28;20041;-62
2021/01/10 11:12:32;;;;;;;58.15;28.65;;;;;;;3.15;100.00;97072.09;5041508;28;20424;-63
2021/01/10 11:14:58;;;;;;;48.42;27.70;;;;;;;4.40;100.00;97262.47;5026925;28;20029;-63
2021/01/10 11:17:23;;;;;;;32.35;17.98;;;;;;;3.93;100.00;97140.16;5024652;28;20043;-64
2021/01/10 11:19:49;;;;;;;28.73;17.10;;;;;;;4.99;100.00;97292.81;5025077;28;20048;-63
2021/01/10 11:22:14;;;;;;;35.38;16.75;;;;;;;4.98;100.00;97302.19;5024579;28;20082;-62
2021/01/10 11:24:42;;;;;;;34.08;17.00;;;;;;;4.96;100.00;97277.00;5026571;28;20041;-62
2021/01/10 11:27:07;;;;;;;20.83;11.73;;;;;;;5.12;100.00;97291.78;5025530;28;20041;-63